Time;durP1;ratioP1;P1;durP2;ratioP2;P2;SDS_P1;SDS_P2;PMS_P1;PMS_P2;Temp;Humidity;BMP_temperature;BMP_pressure;BME280_temperature;BME280_humidity;BME280_pressure;Samples;Min_cycle;Max_cycle;Signal;HPM_P1;HPM_P2
2021/08/01 00:00:16;;;;;;;9.13;5.55;;;18.10;99.90;;;;;;5032000;28;20045;-67
2021/08/01 00:02:44;;;;;;;10.82;6.00;;;18.10;99.90;;;;;;5030930;28;20038;-67
2021/08/01 00:05:11;;;;;;;14.32;5.80;;;18.10;99.90;;;;;;5036121;28;20053;-66
2021/08/01 00:07:39;;;;;;;9.68;5.07;;;18.10;99.90;;;;;;5031220;28;20449;-67
2021/08/01 00:10:09;;;;;;;11.38;5.90;;;18.10;99.90;;;;;;5047417;28;20064;-67
2021/08/01 00:12:36;;;;;;;8.15;5.35;;;18.10;99.90;;;;;;5038205;28;20099;-67
2021/08/01 00:15:06;;;;;;;11.52;5.68;;;18.10;99.90;;;;;;5045621;28;20044;-66
2021/08/01 00:17:34;;;;;;;9.05;5.65;;;18.00;99.90;;;;;;5035757;28;20080;-67
2021/08/01 00:20:03;;;;;;;10.25;5.68;;;18.10;99.90;;;;;;5029070;28;20053;-66
2021/08/01 00:22:30;;;;;;;8.95;5.60;;;18.10;99.90;;;;;;5038706;28;20066;-66
2021/08/01 00:24:58;;;;;;;8.60;5.00;;;18.10;99.90;;;;;;5046321;28;20136;-66
2021/08/01 00:27:25;;;;;;;8.38;5.63;;;18.00;99.90;;;;;;5043891;28;20114;-67
2021/08/01 00:29:53;;;;;;;8.07;5.15;;;18.00;99.90;;;;;;5043566;28;20148;-66
2021/08/01 00:32:21;;;;;;;10.00;5.28;;;18.10;99.90;;;;;;5042488;28;20051;-66
2021/08/01 00:34:49;;;;;;;9.02;4.88;;;18.10;99.90;;;;;;5039101;28;20129;-66
2021/08/01 00:37:16;;;;;;;9.63;5.82;;;18.10;99.90;;;;;;5041814;28;20076;-66
2021/08/01 00:39:43;;;;;;;9.73;5.35;;;18.00;99.90;;;;;;5039788;28;20054;-66
2021/08/01 00:42:12;;;;;;;8.68;5.18;;;18.10;99.90;;;;;;5043088;28;20045;-67
2021/08/01 00:44:39;;;;;;;7.65;5.22;;;18.00;99.90;;;;;;5025550;28;20080;-66
2021/08/01 00:47:07;;;;;;;8.10;4.70;;;18.10;99.90;;;;;;5005861;28;20550;-66
2021/08/01 00:49:34;;;;;;;7.47;4.90;;;18.00;99.90;;;;;;5031873;28;20069;-66
2021/08/01 00:52:07;;;;;;;7.10;4.05;;;18.00;99.90;;;;;;5028489;28;20072;-65
2021/08/01 00:54:35;;;;;;;8.07;4.60;;;18.00;99.90;;;;;;5030490;28;20123;-66
2021/08/01 00:57:06;;;;;;;7.25;4.30;;;18.00;99.90;;;;;;5030573;28;20071;-65
2021/08/01 00:59:37;;;;;;;7.47;4.80;;;18.00;99.90;;;;;;5030919;28;20052;-66
2021/08/01 01:02:13;;;;;;;8.48;5.10;;;17.90;99.90;;;;;;5027651;28;20117;-65
2021/08/01 01:04:44;;;;;;;12.15;5.15;;;17.90;99.90;;;;;;5032103;28;20036;-65
2021/08/01 01:07:41;;;;;;;9.32;5.45;;;17.80;99.90;;;;;;5025161;28;20046;-66
2021/08/01 01:10:33;;;;;;;8.35;4.82;;;17.80;99.90;;;;;;5038807;28;20065;-65
2021/08/01 01:13:22;;;;;;;8.27;4.50;;;17.70;99.90;;;;;;5013950;28;20171;-66
2021/08/01 01:15:54;;;;;;;9.23;5.00;;;17.70;99.90;;;;;;5031791;28;20037;-66
2021/08/01 01:18:46;;;;;;;8.70;4.50;;;17.60;99.90;;;;;;5027806;28;20037;-66
2021/08/01 01:21:33;;;;;;;11.27;5.18;;;17.60;99.90;;;;;;5043595;28;20446;-66
2021/08/01 01:24:08;;;;;;;12.45;5.57;;;17.50;99.90;;;;;;5028051;28;20039;-66
2021/08/01 01:27:13;;;;;;;10.52;5.50;;;17.40;99.90;;;;;;5027093;28;20101;-66
2021/08/01 01:30:03;;;;;;;9.98;5.70;;;17.30;99.90;;;;;;5035512;28;20069;-66
2021/08/01 01:32:50;;;;;;;12.77;6.18;;;17.30;99.90;;;;;;5040822;28;20404;-66
2021/08/01 01:35:20;;;;;;;12.25;5.88;;;17.20;99.90;;;;;;5022602;28;20124;-66
2021/08/01 01:37:51;;;;;;;11.18;6.38;;;17.10;99.90;;;;;;5031907;28;20095;-66
2021/08/01 01:40:40;;;;;;;9.10;6.15;;;17.20;99.90;;;;;;5010582;28;20571;-66
2021/08/01 01:43:28;;;;;;;12.18;6.32;;;17.10;99.90;;;;;;5015202;28;20039;-66
2021/08/01 01:45:58;;;;;;;13.02;7.40;;;17.10;99.90;;;;;;5010362;28;20141;-66
2021/08/01 01:48:26;;;;;;;14.07;7.35;;;17.10;99.90;;;;;;5029130;28;20504;-66
2021/08/01 01:50:54;;;;;;;11.27;7.32;;;17.10;99.90;;;;;;5035705;28;20060;-66
2021/08/01 01:53:23;;;;;;;11.90;7.75;;;17.10;99.90;;;;;;5014382;28;20100;-66
2021/08/01 01:55:51;;;;;;;12.15;7.00;;;17.10;99.90;;;;;;5034743;28;20454;-66
2021/08/01 01:58:19;;;;;;;11.20;7.05;;;17.10;99.90;;;;;;5032393;28;20051;-66
2021/08/01 02:00:47;;;;;;;11.27;6.65;;;17.10;99.90;;;;;;5037341;28;20087;-66
2021/08/01 02:03:16;;;;;;;13.00;7.20;;;17.00;99.90;;;;;;5032187;28;20523;-66
2021/08/01 02:06:15;;;;;;;10.88;7.63;;;17.00;99.90;;;;;;5035135;28;20047;-66
2021/08/01 02:08:54;;;;;;;14.35;7.88;;;16.90;99.90;;;;;;5041859;28;20044;-66
2021/08/01 02:11:46;;;;;;;11.55;7.45;;;16.90;99.90;;;;;;5027664;28;20048;-66
2021/08/01 02:14:31;;;;;;;13.98;8.13;;;17.00;99.90;;;;;;5034249;28;20080;-66
2021/08/01 02:17:06;;;;;;;11.38;7.28;;;16.90;99.90;;;;;;5035831;28;20126;-66
2021/08/01 02:19:39;;;;;;;13.73;7.68;;;16.90;99.90;;;;;;5023442;28;20055;-64
2021/08/01 02:22:11;;;;;;;16.17;8.07;;;16.80;99.90;;;;;;5033390;28;20068;-64
2021/08/01 02:24:41;;;;;;;12.23;7.45;;;16.80;99.90;;;;;;5037089;28;20075;-64
2021/08/01 02:27:09;;;;;;;11.23;7.90;;;16.80;99.90;;;;;;5038358;28;20037;-64
2021/08/01 02:29:38;;;;;;;10.68;7.47;;;16.80;99.90;;;;;;5042687;28;20029;-64
2021/08/01 02:32:08;;;;;;;10.88;7.60;;;16.80;99.90;;;;;;5031144;28;20116;-64
2021/08/01 02:34:39;;;;;;;10.90;7.67;;;16.80;99.90;;;;;;5032855;28;20049;-64
2021/08/01 02:37:10;;;;;;;13.70;7.97;;;16.80;99.90;;;;;;5026861;28;20076;-64
2021/08/01 02:39:39;;;;;;;11.80;7.22;;;16.80;99.90;;;;;;5032325;28;20045;-64
2021/08/01 02:42:10;;;;;;;13.25;7.20;;;16.80;99.90;;;;;;5049920;28;20095;-66
2021/08/01 02:44:40;;;;;;;9.75;7.03;;;16.80;99.90;;;;;;5046076;28;20087;-65
2021/08/01 02:47:12;;;;;;;9.73;7.10;;;16.80;99.90;;;;;;5046622;28;20051;-64
2021/08/01 02:49:43;;;;;;;;;;;16.80;99.90;;;;;;5049094;28;20445;-66
2021/08/01 02:52:28;;;;;;;9.95;6.40;;;16.80;99.90;;;;;;5035109;28;19929;-66
2021/08/01 02:54:57;;;;;;;11.73;6.82;;;16.80;99.90;;;;;;5041070;28;20041;-66
2021/08/01 02:57:27;;;;;;;10.93;7.35;;;16.80;99.90;;;;;;5038815;28;20052;-65
2021/08/01 02:59:58;;;;;;;12.77;7.55;;;16.80;99.90;;;;;;5043314;28;20450;-66
2021/08/01 03:02:27;;;;;;;9.27;5.80;;;16.80;99.90;;;;;;5041940;28;20041;-66
2021/08/01 03:05:02;;;;;;;11.10;6.18;;;16.70;99.90;;;;;;5047798;28;20083;-64
2021/08/01 03:07:31;;;;;;;9.27;6.50;;;16.70;99.90;;;;;;5043262;28;20038;-65
2021/08/01 03:09:59;;;;;;;11.95;6.65;;;16.70;99.90;;;;;;5050413;28;20087;-66
2021/08/01 03:12:28;;;;;;;9.05;6.57;;;16.70;99.90;;;;;;5051412;28;20091;-66
2021/08/01 03:14:57;;;;;;;9.35;6.30;;;16.60;99.90;;;;;;5051793;28;20127;-66
2021/08/01 03:17:26;;;;;;;13.10;6.28;;;16.70;99.90;;;;;;5036645;28;20050;-66
2021/08/01 03:19:54;;;;;;;12.88;6.13;;;16.70;99.90;;;;;;5042239;28;20036;-66
2021/08/01 03:22:22;;;;;;;12.27;6.35;;;16.60;99.90;;;;;;5020436;28;20165;-66
2021/08/01 03:24:51;;;;;;;12.77;6.35;;;16.60;99.90;;;;;;5034076;28;20039;-66
2021/08/01 03:27:20;;;;;;;11.18;6.85;;;16.60;99.90;;;;;;5031121;28;20053;-66
2021/08/01 03:29:49;;;;;;;12.93;6.32;;;16.50;99.90;;;;;;5042613;28;20068;-64
2021/08/01 03:32:18;;;;;;;8.40;6.50;;;16.50;99.90;;;;;;5029135;28;20148;-64
2021/08/01 03:34:48;;;;;;;12.60;6.72;;;16.50;99.90;;;;;;5044118;28;20427;-65
2021/08/01 03:37:26;;;;;;;10.90;5.85;;;16.50;99.90;;;;;;5032644;28;20449;-64
2021/08/01 03:40:14;;;;;;;11.77;6.07;;;16.50;99.90;;;;;;5049127;28;20079;-65
2021/08/01 03:42:42;;;;;;;8.27;5.97;;;16.40;99.90;;;;;;5029855;28;20037;-65
2021/08/01 03:45:11;;;;;;;8.60;5.68;;;16.40;99.90;;;;;;5033542;28;20037;-65
2021/08/01 03:47:38;;;;;;;8.38;5.63;;;16.40;99.90;;;;;;5035191;28;20064;-65
2021/08/01 03:50:07;;;;;;;11.43;5.25;;;16.40;99.90;;;;;;5035300;28;20437;-65
2021/08/01 03:52:34;;;;;;;9.30;5.45;;;16.30;99.90;;;;;;5030381;28;20520;-65
2021/08/01 03:55:03;;;;;;;8.52;5.60;;;16.20;99.90;;;;;;5042392;28;20045;-66
2021/08/01 03:57:30;;;;;;;8.88;5.55;;;16.10;99.90;;;;;;5048742;28;20570;-65
2021/08/01 03:59:58;;;;;;;7.25;4.55;;;16.00;99.90;;;;;;5049599;28;20053;-65
2021/08/01 04:02:25;;;;;;;8.48;4.78;;;15.90;99.90;;;;;;5050209;28;20514;-65
2021/08/01 04:04:53;;;;;;;7.72;4.78;;;15.80;99.90;;;;;;5026872;28;20513;-65
2021/08/01 04:07:21;;;;;;;7.63;4.97;;;15.80;99.90;;;;;;5031902;28;20041;-65
2021/08/01 04:09:48;;;;;;;7.70;5.00;;;15.80;99.90;;;;;;5026905;28;20038;-65
2021/08/01 04:12:15;;;;;;;6.90;5.13;;;15.80;99.90;;;;;;5035122;28;20132;-65
2021/08/01 04:14:42;;;;;;;7.07;4.60;;;15.90;99.90;;;;;;5050392;28;20086;-65
2021/08/01 04:17:10;;;;;;;9.68;4.60;;;15.80;99.90;;;;;;5052218;28;20044;-65
2021/08/01 04:19:38;;;;;;;9.40;5.72;;;15.80;99.90;;;;;;5034754;28;20064;-65
2021/08/01 04:22:05;;;;;;;10.23;5.35;;;15.80;99.90;;;;;;5031658;28;20136;-65
2021/08/01 04:24:33;;;;;;;8.18;4.95;;;15.80;99.90;;;;;;5038183;28;20049;-65
2021/08/01 04:27:00;;;;;;;9.25;5.00;;;15.80;99.90;;;;;;5034707;28;20068;-65
2021/08/01 04:29:27;;;;;;;8.85;5.25;;;15.80;99.90;;;;;;5036630;28;20124;-65
2021/08/01 04:31:55;;;;;;;11.85;5.07;;;15.80;99.90;;;;;;5040790;28;20434;-65
2021/08/01 04:34:23;;;;;;;10.77;5.40;;;15.80;99.90;;;;;;5048079;28;20072;-65
2021/08/01 04:36:51;;;;;;;8.45;5.30;;;15.70;99.90;;;;;;5042950;28;20452;-65
2021/08/01 04:39:18;;;;;;;11.40;5.53;;;15.70;99.90;;;;;;5045778;28;20094;-65
2021/08/01 04:41:46;;;;;;;8.18;5.03;;;15.70;99.90;;;;;;5037731;28;20053;-65
2021/08/01 04:44:13;;;;;;;6.75;4.88;;;15.60;99.90;;;;;;5022288;28;20038;-65
2021/08/01 04:46:40;;;;;;;9.43;5.35;;;15.60;99.90;;;;;;5033453;28;20404;-65
2021/08/01 04:49:08;;;;;;;9.73;5.85;;;15.60;99.90;;;;;;5025722;28;20046;-65
2021/08/01 04:51:35;;;;;;;9.98;5.40;;;15.70;99.90;;;;;;5021148;28;20460;-65
2021/08/01 04:54:02;;;;;;;8.55;5.20;;;15.60;99.90;;;;;;5029814;28;20411;-65
2021/08/01 04:56:30;;;;;;;10.13;5.07;;;15.50;99.90;;;;;;5029263;28;20129;-65
2021/08/01 04:58:57;;;;;;;9.20;4.65;;;15.50;99.90;;;;;;5029203;28;20049;-65
2021/08/01 05:01:24;;;;;;;8.35;6.32;;;15.50;99.90;;;;;;5039195;28;20076;-65
2021/08/01 05:03:52;;;;;;;10.77;6.10;;;15.50;99.90;;;;;;5042220;28;20143;-65
2021/08/01 05:06:19;;;;;;;9.50;6.43;;;15.50;99.90;;;;;;5023360;28;20125;-65
2021/08/01 05:08:47;;;;;;;11.93;7.97;;;15.60;99.90;;;;;;5022711;28;20044;-65
2021/08/01 05:11:14;;;;;;;12.80;8.68;;;15.60;99.90;;;;;;5032795;28;20029;-67
2021/08/01 05:13:41;;;;;;;15.32;9.07;;;15.70;99.90;;;;;;5031719;28;20048;-65
2021/08/01 05:16:15;;;;;;;11.00;9.00;;;15.70;99.90;;;;;;5035606;28;20457;-65
2021/08/01 05:18:43;;;;;;;13.20;8.93;;;15.60;99.90;;;;;;5033341;28;20067;-65
2021/08/01 05:21:10;;;;;;;14.70;9.48;;;15.50;99.90;;;;;;5034240;28;20056;-65
2021/08/01 05:23:38;;;;;;;11.00;8.38;;;15.50;99.90;;;;;;5019680;28;20049;-65
2021/08/01 05:26:05;;;;;;;15.25;8.98;;;15.50;99.90;;;;;;5038651;28;20825;-66
2021/08/01 05:28:32;;;;;;;13.98;9.73;;;15.40;99.90;;;;;;5046134;28;20080;-66
2021/08/01 05:31:00;;;;;;;12.00;9.10;;;15.40;99.90;;;;;;5040420;28;20049;-66
2021/08/01 05:33:28;;;;;;;14.00;8.57;;;15.30;99.90;;;;;;5036120;28;20460;-66
2021/08/01 05:35:55;;;;;;;13.30;9.57;;;15.30;99.90;;;;;;5037350;28;20060;-66
2021/08/01 05:38:22;;;;;;;13.68;9.75;;;15.30;99.90;;;;;;5041409;28;20045;-66
2021/08/01 05:40:51;;;;;;;11.57;8.55;;;15.30;99.90;;;;;;5034308;28;20068;-66
2021/08/01 05:43:18;;;;;;;11.82;7.80;;;15.30;99.90;;;;;;5032546;28;20047;-66
2021/08/01 05:45:46;;;;;;;12.70;7.63;;;15.40;99.90;;;;;;5029688;28;20404;-66
2021/08/01 05:48:13;;;;;;;13.50;8.90;;;15.40;99.90;;;;;;5026632;28;20049;-66
2021/08/01 05:50:40;;;;;;;14.20;8.80;;;15.40;99.90;;;;;;5031948;28;20029;-66
2021/08/01 05:53:07;;;;;;;12.38;8.65;;;15.40;99.90;;;;;;5030233;28;20133;-66
2021/08/01 05:55:35;;;;;;;19.52;10.10;;;15.40;99.90;;;;;;5031654;28;20041;-66
2021/08/01 05:58:02;;;;;;;13.35;9.18;;;15.40;99.90;;;;;;5047807;28;20111;-66
2021/08/01 06:00:29;;;;;;;12.48;8.18;;;15.40;99.90;;;;;;5041828;28;20069;-66
2021/08/01 06:02:57;;;;;;;12.00;8.60;;;15.40;99.90;;;;;;5030188;28;20500;-66
2021/08/01 06:05:25;;;;;;;10.93;8.15;;;15.40;99.90;;;;;;5028176;28;20041;-66
2021/08/01 06:07:52;;;;;;;10.55;8.15;;;15.40;99.90;;;;;;5038589;28;20107;-66
2021/08/01 06:10:19;;;;;;;10.68;8.23;;;15.50;99.90;;;;;;5036747;28;20103;-67
2021/08/01 06:12:47;;;;;;;14.52;8.80;;;15.50;99.90;;;;;;5041244;28;20442;-66
2021/08/01 06:15:14;;;;;;;12.05;8.20;;;15.60;99.90;;;;;;5045497;28;20041;-66
2021/08/01 06:17:41;;;;;;;10.63;7.43;;;15.60;99.90;;;;;;5035905;28;20121;-66
2021/08/01 06:20:11;;;;;;;11.57;8.02;;;15.60;99.90;;;;;;5028103;28;20118;-66
2021/08/01 06:22:38;;;;;;;12.60;7.55;;;15.70;99.90;;;;;;5043193;28;20063;-67
2021/08/01 06:25:07;;;;;;;14.15;7.57;;;15.70;99.90;;;;;;5047439;28;20037;-67
2021/08/01 06:27:34;;;;;;;8.93;6.40;;;15.70;99.90;;;;;;5040523;28;20076;-67
2021/08/01 06:30:02;;;;;;;10.10;7.10;;;15.80;99.90;;;;;;5028955;28;20049;-67
2021/08/01 06:32:30;;;;;;;11.98;7.15;;;15.80;99.90;;;;;;5031588;28;20072;-67
2021/08/01 06:34:57;;;;;;;9.98;7.20;;;15.80;99.90;;;;;;5044657;28;20048;-67
2021/08/01 06:37:25;;;;;;;11.38;6.65;;;15.90;99.90;;;;;;5030463;28;20046;-67
2021/08/01 06:39:52;;;;;;;8.82;6.07;;;16.00;99.90;;;;;;5037341;28;20148;-67
2021/08/01 06:42:19;;;;;;;12.25;5.97;;;16.10;99.90;;;;;;5030252;28;20400;-67
2021/08/01 06:44:46;;;;;;;8.82;6.40;;;16.10;99.90;;;;;;5028823;28;20496;-67
2021/08/01 06:47:14;;;;;;;12.02;6.85;;;16.20;99.90;;;;;;5027091;28;20041;-67
2021/08/01 06:49:41;;;;;;;11.82;6.75;;;16.20;99.90;;;;;;5026368;28;20041;-67
2021/08/01 06:52:27;;;;;;;12.90;7.03;;;16.20;99.90;;;;;;5034183;28;20064;-67
2021/08/01 06:54:54;;;;;;;11.52;7.38;;;16.40;99.90;;;;;;5036094;28;20050;-67
2021/08/01 06:57:22;;;;;;;8.95;6.15;;;16.50;99.90;;;;;;5013550;28;20459;-67
2021/08/01 06:59:49;;;;;;;11.10;6.68;;;16.60;99.90;;;;;;5024688;28;20456;-67
2021/08/01 07:02:17;;;;;;;9.13;6.45;;;16.70;99.90;;;;;;5032420;28;20054;-67
2021/08/01 07:04:44;;;;;;;10.73;7.53;;;16.70;99.90;;;;;;5052652;28;20129;-67
2021/08/01 07:07:11;;;;;;;9.20;6.63;;;16.70;99.90;;;;;;5038179;28;20041;-67
2021/08/01 07:09:40;;;;;;;11.38;6.90;;;16.60;99.90;;;;;;5050578;28;20072;-68
2021/08/01 07:12:08;;;;;;;8.52;6.63;;;16.70;99.90;;;;;;5051283;28;20045;-67
2021/08/01 07:14:36;;;;;;;14.32;8.70;;;16.70;99.90;;;;;;5052306;28;20122;-67
2021/08/01 07:17:03;;;;;;;10.73;6.43;;;16.80;99.90;;;;;;5033064;28;20056;-67
2021/08/01 07:19:31;;;;;;;12.40;6.15;;;17.00;99.90;;;;;;5033883;28;20049;-67
2021/08/01 07:21:58;;;;;;;9.23;6.55;;;17.10;99.90;;;;;;5016386;28;20049;-67
2021/08/01 07:24:25;;;;;;;10.45;6.55;;;17.20;99.90;;;;;;5016904;28;20042;-67
2021/08/01 07:26:54;;;;;;;12.20;7.90;;;17.10;99.90;;;;;;5029539;28;20046;-67
2021/08/01 07:29:24;;;;;;;14.00;8.20;;;17.10;99.90;;;;;;5020772;28;20048;-67
2021/08/01 07:31:52;;;;;;;8.77;6.72;;;17.40;99.90;;;;;;5022936;28;20504;-67
2021/08/01 07:34:20;;;;;;;8.52;6.03;;;17.70;99.90;;;;;;5018564;28;20451;-67
2021/08/01 07:36:47;;;;;;;9.35;6.43;;;17.80;99.90;;;;;;5020661;28;20096;-67
2021/08/01 07:39:15;;;;;;;15.65;9.32;;;17.80;99.90;;;;;;5015542;28;20140;-67
2021/08/01 07:41:42;;;;;;;15.75;11.40;;;18.10;99.90;;;;;;5018746;28;20346;-67
2021/08/01 07:44:09;;;;;;;9.57;6.75;;;18.40;99.90;;;;;;5015440;28;20521;-67
2021/08/01 07:46:37;;;;;;;8.45;6.00;;;18.60;99.90;;;;;;5019926;28;20048;-67
2021/08/01 07:49:04;;;;;;;11.15;6.80;;;18.50;99.90;;;;;;5030070;28;20608;-67
2021/08/01 07:51:32;;;;;;;9.50;6.30;;;18.50;99.90;;;;;;5018103;28;20406;-67
2021/08/01 07:53:59;;;;;;;9.32;5.50;;;18.60;99.90;;;;;;5030491;28;20544;-67
2021/08/01 07:56:27;;;;;;;10.18;5.60;;;18.80;99.90;;;;;;5031323;28;20572;-67
2021/08/01 07:58:54;;;;;;;8.70;5.68;;;19.00;99.90;;;;;;5023117;28;20053;-67
2021/08/01 08:01:21;;;;;;;8.15;5.03;;;19.10;99.90;;;;;;5019554;28;20045;-67
2021/08/01 08:03:49;;;;;;;13.07;5.00;;;19.10;99.90;;;;;;5017927;28;20069;-67
2021/08/01 08:06:16;;;;;;;8.35;4.97;;;18.90;99.90;;;;;;5020152;28;20043;-67
2021/08/01 08:08:43;;;;;;;8.75;5.60;;;18.90;99.90;;;;;;5018343;28;20100;-67
2021/08/01 08:11:11;;;;;;;8.93;5.82;;;18.80;99.90;;;;;;5015908;28;20054;-67
2021/08/01 08:13:39;;;;;;;6.80;5.10;;;18.70;99.90;;;;;;5022678;28;20373;-67
2021/08/01 08:16:06;;;;;;;9.23;6.13;;;18.60;99.90;;;;;;5017317;28;20401;-67
2021/08/01 08:18:33;;;;;;;7.68;5.43;;;18.60;99.90;;;;;;5012232;28;20488;-67
2021/08/01 08:21:01;;;;;;;9.57;4.90;;;18.70;99.90;;;;;;5038093;28;20048;-67
2021/08/01 08:23:29;;;;;;;7.72;5.35;;;18.80;99.90;;;;;;5039417;28;20037;-67
2021/08/01 08:25:57;;;;;;;8.55;5.00;;;18.90;99.90;;;;;;5044944;28;20580;-67
2021/08/01 08:28:24;;;;;;;8.32;4.75;;;18.80;99.90;;;;;;5046287;28;20036;-67
2021/08/01 08:30:51;;;;;;;7.45;4.97;;;18.80;99.90;;;;;;5045024;28;20562;-71
2021/08/01 08:33:20;;;;;;;7.25;4.97;;;19.00;99.90;;;;;;5029928;28;20192;-67
2021/08/01 08:35:52;;;;;;;7.65;5.30;;;19.10;99.90;;;;;;5035399;28;20587;-67
2021/08/01 08:38:20;;;;;;;7.68;4.47;;;19.30;99.90;;;;;;5018710;28;20555;-67
2021/08/01 08:40:48;;;;;;;7.47;4.40;;;19.50;99.90;;;;;;5016553;28;20065;-67
2021/08/01 08:43:15;;;;;;;6.97;4.95;;;19.70;99.90;;;;;;5026901;28;20046;-67
2021/08/01 08:45:47;;;;;;;7.00;4.45;;;19.70;99.90;;;;;;5032748;28;20037;-67
2021/08/01 08:48:16;;;;;;;7.13;5.47;;;19.80;99.90;;;;;;5020545;28;20045;-68
2021/08/01 08:50:49;;;;;;;9.27;5.50;;;19.80;99.90;;;;;;5020950;28;20041;-68
2021/08/01 08:53:21;;;;;;;7.57;4.82;;;19.60;99.90;;;;;;5029886;28;20080;-68
2021/08/01 08:55:49;;;;;;;7.50;4.60;;;19.70;99.90;;;;;;5043069;28;20036;-68
2021/08/01 08:58:20;;;;;;;9.65;4.75;;;19.70;99.90;;;;;;5025687;28;20046;-68
2021/08/01 09:00:48;;;;;;;7.50;4.95;;;20.00;99.90;;;;;;5013866;28;20104;-68
2021/08/01 09:03:15;;;;;;;7.32;4.70;;;20.20;99.90;;;;;;5031241;28;20135;-68
2021/08/01 09:05:43;;;;;;;6.65;4.57;;;20.50;99.90;;;;;;5040693;28;20041;-69
2021/08/01 09:08:10;;;;;;;6.50;4.18;;;20.90;99.90;;;;;;5047471;28;20511;-68
2021/08/01 09:10:37;;;;;;;6.97;4.70;;;21.20;99.90;;;;;;5044356;28;20049;-68
2021/08/01 09:13:05;;;;;;;7.85;4.53;;;21.40;99.90;;;;;;5040687;28;20455;-68
2021/08/01 09:15:35;;;;;;;6.88;4.10;;;21.50;99.90;;;;;;5040734;28;20068;-68
2021/08/01 09:18:10;;;;;;;6.88;3.95;;;21.60;99.90;;;;;;5044543;28;20500;-68
2021/08/01 09:20:49;;;;;;;6.47;4.07;;;21.40;99.90;;;;;;5044738;28;20095;-68
2021/08/01 09:23:16;;;;;;;7.75;4.45;;;21.50;99.90;;;;;;5033771;28;20077;-68
2021/08/01 09:25:55;;;;;;;7.60;3.53;;;21.50;99.90;;;;;;5014034;28;20444;-68
2021/08/01 09:28:24;;;;;;;7.60;3.90;;;21.40;99.90;;;;;;5020950;28;20157;-68
2021/08/01 09:30:58;;;;;;;8.23;4.35;;;21.00;99.90;;;;;;5034029;28;20517;-68
2021/08/01 09:33:43;;;;;;;8.63;4.20;;;20.90;99.90;;;;;;5015337;28;20073;-68
2021/08/01 09:36:22;;;;;;;7.00;4.20;;;21.00;99.90;;;;;;5016861;28;20171;-68
2021/08/01 09:39:05;;;;;;;6.72;3.88;;;21.20;99.90;;;;;;5014171;28;20129;-68
2021/08/01 09:41:32;;;;;;;8.07;4.33;;;21.00;99.90;;;;;;5015279;28;20052;-68
2021/08/01 09:44:01;;;;;;;6.00;3.38;;;21.00;99.90;;;;;;5012992;28;20311;-68
2021/08/01 09:46:45;;;;;;;6.97;3.25;;;21.20;99.90;;;;;;5015456;28;20040;-68
2021/08/01 09:49:18;;;;;;;7.28;3.00;;;21.60;99.90;;;;;;5014278;28;20042;-68
2021/08/01 09:51:51;;;;;;;4.00;2.40;;;21.80;99.90;;;;;;5019643;28;20500;-68
2021/08/01 09:54:20;;;;;;;8.13;3.58;;;22.20;99.90;;;;;;5026163;28;20053;-68
2021/08/01 09:57:01;;;;;;;6.32;3.45;;;22.30;99.90;;;;;;5021531;28;20108;-68
2021/08/01 09:59:30;;;;;;;3.92;2.45;;;22.20;99.90;;;;;;5023401;28;20492;-67
2021/08/01 10:02:00;;;;;;;5.53;2.97;;;22.50;99.90;;;;;;5018230;28;20050;-67
2021/08/01 10:04:38;;;;;;;6.78;4.05;;;22.70;99.90;;;;;;5031079;28;20042;-67
2021/08/01 10:07:09;;;;;;;6.45;3.83;;;22.70;99.90;;;;;;5012688;28;20119;-67
2021/08/01 10:09:38;;;;;;;6.40;2.90;;;22.70;99.90;;;;;;5032502;28;20052;-67
2021/08/01 10:12:08;;;;;;;5.90;3.03;;;23.00;99.90;;;;;;5022183;28;20320;-67
2021/08/01 10:14:37;;;;;;;4.03;2.50;;;22.60;99.90;;;;;;5021669;28;20052;-67
2021/08/01 10:17:05;;;;;;;6.13;2.70;;;22.30;99.90;;;;;;5017675;28;20064;-67
2021/08/01 10:19:34;;;;;;;5.85;2.92;;;22.30;99.90;;;;;;5031243;28;20103;-67
2021/08/01 10:22:04;;;;;;;4.97;2.40;;;22.40;99.90;;;;;;5026571;28;20042;-68
2021/08/01 10:24:50;;;;;;;6.30;2.58;;;22.40;99.90;;;;;;5036917;28;20038;-67
2021/08/01 10:27:21;;;;;;;6.57;3.13;;;21.80;99.90;;;;;;5035668;28;20077;-67
2021/08/01 10:29:54;;;;;;;6.35;2.67;;;21.50;99.90;;;;;;5035168;28;20068;-68
2021/08/01 10:32:24;;;;;;;5.80;2.75;;;21.30;99.90;;;;;;5030617;28;20061;-67
2021/08/01 10:34:58;;;;;;;8.07;3.15;;;21.30;99.90;;;;;;5033559;28;20403;-67
2021/08/01 10:37:31;;;;;;;5.50;3.33;;;21.10;99.90;;;;;;5033389;28;20095;-67
2021/08/01 10:40:03;;;;;;;6.18;2.78;;;21.00;99.90;;;;;;5034361;28;20056;-67
2021/08/01 10:42:33;;;;;;;5.47;2.97;;;20.90;99.90;;;;;;5031933;28;20528;-66
2021/08/01 10:45:01;;;;;;;6.07;2.85;;;20.30;99.90;;;;;;5034852;28;20471;-66
2021/08/01 10:47:29;;;;;;;6.60;3.28;;;20.10;99.90;;;;;;5034419;28;20483;-66
2021/08/01 10:49:57;;;;;;;4.55;3.00;;;19.80;99.90;;;;;;5029775;28;20033;-66
2021/08/01 10:52:34;;;;;;;6.85;2.80;;;19.60;99.90;;;;;;5032855;28;20052;-66
2021/08/01 10:55:05;;;;;;;7.55;3.10;;;19.60;99.90;;;;;;5029053;28;20057;-66
2021/08/01 10:57:33;;;;;;;7.88;3.58;;;19.70;99.90;;;;;;5045691;28;20140;-66
2021/08/01 11:00:05;;;;;;;5.13;3.33;;;19.60;99.90;;;;;;5036382;28;20540;-66
2021/08/01 11:02:34;;;;;;;4.97;2.50;;;19.80;99.90;;;;;;5028915;28;20042;-66
2021/08/01 11:05:35;;;;;;;5.15;2.55;;;20.00;99.90;;;;;;5023001;28;20519;-66
2021/08/01 11:08:04;;;;;;;3.75;2.20;;;20.30;99.90;;;;;;5015049;28;20045;-66
2021/08/01 11:10:32;;;;;;;3.45;1.77;;;20.30;99.90;;;;;;5031659;28;20397;-66
2021/08/01 11:12:59;;;;;;;4.13;2.17;;;20.30;99.90;;;;;;5035661;28;20566;-66
2021/08/01 11:15:45;;;;;;;4.20;1.92;;;20.30;99.90;;;;;;5039487;28;20079;-66
2021/08/01 11:18:12;;;;;;;6.18;2.40;;;20.60;99.90;;;;;;5039697;28;20386;-66
2021/08/01 11:20:43;;;;;;;4.95;2.22;;;20.90;99.90;;;;;;5028940;28;20413;-67
2021/08/01 11:23:10;;;;;;;4.97;2.10;;;21.00;99.90;;;;;;5021224;28;20488;-67
2021/08/01 11:25:40;;;;;;;6.25;2.67;;;21.10;99.90;;;;;;5036277;28;20453;-68
2021/08/01 11:28:10;;;;;;;5.55;2.80;;;21.10;99.90;;;;;;5038858;28;20055;-67
2021/08/01 11:30:52;;;;;;;5.03;3.00;;;21.10;99.90;;;;;;5030678;28;20053;-68
2021/08/01 11:33:43;;;;;;;6.65;3.10;;;20.90;99.90;;;;;;5038673;28;20500;-67
2021/08/01 11:36:17;;;;;;;5.85;2.92;;;20.70;99.90;;;;;;5033069;28;20048;-68
2021/08/01 11:38:54;;;;;;;5.30;3.25;;;20.60;99.90;;;;;;5032503;28;20037;-68
2021/08/01 11:44:06;;;;;;;7.07;3.45;;;20.70;99.90;;;;;;5037690;28;20047;-68
2021/08/01 11:47:00;;;;;;;5.13;2.83;;;20.80;99.90;;;;;;5030943;28;20120;-68
2021/08/01 11:49:29;;;;;;;6.07;2.58;;;20.90;99.90;;;;;;5018295;28;20297;-67
2021/08/01 11:51:58;;;;;;;5.70;2.50;;;20.60;99.90;;;;;;5019748;28;20092;-67
2021/08/01 11:54:33;;;;;;;4.97;2.58;;;20.10;99.90;;;;;;5013850;28;20038;-67
2021/08/01 11:57:09;;;;;;;4.43;2.25;;;20.10;99.90;;;;;;5020940;28;20149;-68
2021/08/01 11:59:38;;;;;;;5.80;2.30;;;20.00;99.90;;;;;;5015252;28;20056;-68
2021/08/01 12:02:11;;;;;;;4.65;2.45;;;20.20;99.90;;;;;;5016072;28;20049;-68
2021/08/01 12:04:50;;;;;;;4.25;2.20;;;20.70;99.90;;;;;;5023038;28;20099;-68
2021/08/01 12:07:17;;;;;;;3.30;1.83;;;20.90;99.90;;;;;;5012589;28;20049;-67
2021/08/01 12:09:45;;;;;;;3.17;1.80;;;21.50;99.90;;;;;;5016625;28;20061;-67
2021/08/01 12:12:12;;;;;;;4.15;1.83;;;21.90;99.90;;;;;;5023611;28;20092;-67
2021/08/01 12:14:41;;;;;;;4.00;1.75;;;22.20;99.90;;;;;;5032713;28;20084;-68
2021/08/01 12:17:11;;;;;;;3.95;1.90;;;22.60;99.90;;;;;;5033703;28;20045;-68
2021/08/01 12:19:49;;;;;;;3.78;1.88;;;22.80;99.90;;;;;;5008414;28;20455;-68
2021/08/01 12:22:19;;;;;;;4.82;2.17;;;22.80;99.90;;;;;;5016709;28;20069;-67
2021/08/01 12:24:57;;;;;;;3.53;1.92;;;22.90;99.90;;;;;;5028442;28;20080;-67
2021/08/01 12:27:36;;;;;;;3.78;2.08;;;23.50;99.90;;;;;;5018024;28;20125;-67
2021/08/01 12:30:08;;;;;;;3.63;2.10;;;24.00;99.90;;;;;;5023911;28;20096;-66
2021/08/01 12:32:43;;;;;;;3.70;2.25;;;24.90;99.90;;;;;;5017147;28;20412;-66
2021/08/01 12:35:21;;;;;;;3.90;2.30;;;25.10;99.90;;;;;;5024192;28;20051;-67
2021/08/01 12:38:02;;;;;;;5.65;2.20;;;25.20;99.90;;;;;;5013335;28;20194;-67
2021/08/01 12:40:36;;;;;;;3.95;2.47;;;25.50;99.90;;;;;;5019378;28;20125;-68
2021/08/01 12:43:08;;;;;;;4.47;2.03;;;25.40;99.90;;;;;;5005748;28;20049;-67
2021/08/01 12:45:36;;;;;;;;;;;25.40;99.90;;;;;;5011886;28;20090;-67
2021/08/01 12:48:10;;;;;;;4.15;2.00;;;25.40;99.90;;;;;;5027750;28;19925;-68
2021/08/01 12:50:43;;;;;;;4.80;2.08;;;25.40;99.90;;;;;;5019594;28;20030;-67
2021/08/01 12:53:15;;;;;;;4.68;2.55;;;24.90;99.90;;;;;;5018840;28;20444;-68
2021/08/01 12:55:44;;;;;;;3.83;2.10;;;24.70;99.90;;;;;;5036389;28;20049;-68
2021/08/01 12:58:12;;;;;;;3.03;1.80;;;24.80;99.90;;;;;;5020124;28;20435;-67
2021/08/01 13:00:55;;;;;;;4.53;2.17;;;24.90;99.90;;;;;;5030649;28;20167;-68
2021/08/01 13:03:31;;;;;;;6.25;2.25;;;24.80;99.90;;;;;;5023313;28;20041;-68